• Join FlightAware (Why Join?)
  • Login
  • US Flag 
05:23PM EDT


 

Airport Tracker/Info


-or-


 

Live Flight TrackerFlight Track Log ✈ ASA125 ✈ 09-Nov-2013 ✈ KSEA - PAFA / FAI

Flight Track Log - Related Links

Times and Time Zones

All times are in EST time to prevent confusion due to time zone crossing. See the ASA125 flight status page for this flight to view local times or setup timezone preferences in your user account.

Time Position Orientation Groundspeed Altitude Reporting Facility
EST Latitude Longitude Course Direction KTS MPH feet Rate Location/Type
02:13AM 47.4258 -122.3089 178° South 161 185 1,900  Level Seattle Center
02:13AM 47.4189 -122.3086 178° South 166 191 2,300 2,160 Climbing Seattle Center
02:14AM 47.3631 -122.3097 181° South 197 227 4,500 2,340 Climbing Seattle Center
02:15AM 47.3156 -122.3633 217° Southwest 242 278 7,100 3,000 Climbing Seattle Center
02:16AM 47.3178 -122.4658 272° West 261 300 10,500 2,400 Climbing Seattle Center
02:17AM 47.3689 -122.5592 309° West 307 353 12,000 1,680 Climbing Seattle Center
02:18AM 47.4436 -122.6564 319° Northwest 358 412 13,900 2,220 Climbing Seattle Center
02:19AM 47.5208 -122.7569 319° Northwest 369 425 16,500 2,220 Climbing Seattle Center
02:20AM 47.5911 -122.8489 319° Northwest 378 435 18,400 2,580 Climbing Seattle Center
02:21AM 47.6650 -122.9644 314° West 382 440 21,700 2,820 Climbing Seattle Center
02:22AM 47.7172 -123.0878 302° West 355 409 24,200 2,100 Climbing Seattle Center
02:23AM 47.7689 -123.2131 302° West 357 411 26,000 1,380 Climbing Seattle Center
02:24AM 47.8267 -123.3492 302° West 384 442 27,000 1,260 Climbing Seattle Center
02:25AM 47.8667 -123.4833 294° West 400 460 28,300 1,620 Climbing Vancouver Center
02:26AM 47.9667 -123.5833 326° Northwest 440 506 30,000 1,740 Climbing Vancouver Center
02:27AM 48.0667 -123.6833 326° Northwest 440 506 31,800 1,860 Climbing Vancouver Center
02:28AM 48.1667 -123.7667 331° Northwest 430 495 33,800 1,800 Climbing Vancouver Center
02:29AM 48.2667 -123.8667 326° Northwest 420 483 35,500 1,260 Climbing Vancouver Center
02:30AM 48.3667 -123.9833 322° Northwest 410 472 36,400 780 Climbing Vancouver Center
02:31AM 48.4667 -124.0500 336° Northwest 420 483 37,100 780 Climbing Vancouver Center
02:32AM 48.5667 -124.1500 327° Northwest 420 483 38,000 420 Climbing Vancouver Center
02:33AM 48.6500 -124.2500 322° Northwest 420 483 38,000  Level Vancouver Center
02:34AM 48.7500 -124.3500 327° Northwest 420 483 38,000  Level Vancouver Center
02:35AM 48.8500 -124.4667 323° Northwest 420 483 38,000  Level Vancouver Center
02:36AM 48.9500 -124.5667 327° Northwest 420 483 38,000  Level Vancouver Center
02:37AM 49.0500 -124.6667 327° Northwest 420 483 38,000  Level Vancouver Center
02:38AM 49.1333 -124.7500 327° Northwest 420 483 38,000  Level Vancouver Center
02:39AM 49.2500 -124.8500 331° Northwest 430 495 38,000  Level Vancouver Center
02:40AM 49.3333 -124.9500 322° Northwest 420 483 38,000  Level Vancouver Center
02:41AM 49.4333 -125.0500 327° Northwest 420 483 38,000  Level Vancouver Center
02:42AM 49.5333 -125.1667 323° Northwest 420 483 38,000  Level Vancouver Center
02:43AM 49.6333 -125.2667 327° Northwest 410 472 38,000  Level Vancouver Center
02:44AM 49.7167 -125.3500 327° Northwest 400 460 38,000  Level Vancouver Center
02:45AM 49.8167 -125.4500 327° Northwest 390 449 38,000  Level Vancouver Center
02:46AM 49.9000 -125.5333 327° Northwest 400 460 38,000  Level Vancouver Center
02:47AM 50.0000 -125.6500 323° Northwest 400 460 38,000  Level Vancouver Center
02:48AM 50.0833 -125.7500 322° Northwest 400 460 38,000  Level Vancouver Center
02:49AM 50.1667 -125.8333 327° Northwest 410 472 38,000  Level Vancouver Center
02:50AM 50.2667 -125.9333 327° Northwest 410 472 38,000  Level Vancouver Center
02:51AM 50.3500 -126.0500 318° Northwest 410 472 38,000  Level Vancouver Center
02:52AM 50.4500 -126.1667 323° Northwest 410 472 38,000  Level Vancouver Center
02:53AM 50.5500 -126.2500 332° Northwest 420 483 38,000  Level Vancouver Center
02:54AM 50.6500 -126.3500 328° Northwest 420 483 38,000  Level Vancouver Center
02:55AM 50.7500 -126.4667 324° Northwest 430 495 38,000  Level Vancouver Center
02:56AM 50.8500 -126.5833 324° Northwest 430 495 38,000  Level Vancouver Center
02:57AM 50.9333 -126.6833 323° Northwest 430 495 38,000  Level Vancouver Center
02:58AM 51.0333 -126.8000 324° Northwest 430 495 38,000  Level Vancouver Center
02:59AM 51.1333 -126.9167 324° Northwest 440 506 38,000  Level Vancouver Center
03:00AM 51.2333 -127.0333 324° Northwest 440 506 38,000  Level Vancouver Center
03:01AM 51.3333 -127.1333 328° Northwest 440 506 38,000  Level Vancouver Center
03:02AM 51.4333 -127.2500 324° Northwest 440 506 38,000  Level Vancouver Center
03:03AM 51.5333 -127.3667 324° Northwest 440 506 38,000  Level Vancouver Center
03:04AM 51.6167 -127.4833 319° Northwest 440 506 38,000  Level Vancouver Center
03:05AM 51.7333 -127.6000 328° Northwest 440 506 38,000  Level Vancouver Center
03:06AM 51.8333 -127.7167 324° Northwest 440 506 38,000  Level Vancouver Center
03:07AM 51.9333 -127.8333 324° Northwest 440 506 38,000  Level Vancouver Center
03:08AM 52.0167 -127.9500 319° Northwest 440 506 38,000  Level Vancouver Center
03:09AM 52.1333 -128.0667 328° Northwest 440 506 38,000  Level Vancouver Center
03:10AM 52.2333 -128.1833 324° Northwest 440 506 38,000  Level Vancouver Center
03:11AM 52.3333 -128.3000 325° Northwest 440 506 38,000  Level Vancouver Center
03:12AM 52.4333 -128.4000 329° Northwest 450 518 38,000  Level Vancouver Center
03:13AM 52.5333 -128.5167 325° Northwest 440 506 38,000  Level Vancouver Center
03:14AM 52.6333 -128.6333 325° Northwest 430 495 38,000  Level Vancouver Center
03:15AM 52.7500 -128.7333 333° Northwest 440 506 38,000  Level Vancouver Center
03:16AM 52.8167 -128.8500 313° West 430 495 38,000  Level Vancouver Center
03:17AM 52.9333 -128.9500 333° Northwest 420 483 38,000  Level Vancouver Center
03:18AM 53.0333 -129.0667 325° Northwest 430 495 38,000  Level Vancouver Center
03:19AM 53.1333 -129.1667 329° Northwest 430 495 38,000  Level Vancouver Center
03:20AM 53.2167 -129.3000 316° Northwest 420 483 38,000  Level Vancouver Center
03:21AM 53.3167 -129.3833 334° Northwest 430 495 38,000  Level Vancouver Center
03:22AM 53.4167 -129.5167 322° Northwest 430 495 38,000  Level Vancouver Center
03:23AM 53.5167 -129.6333 325° Northwest 430 495 38,000  Level Vancouver Center
03:24AM 53.6167 -129.7333 329° Northwest 420 483 38,000  Level Vancouver Center
03:25AM 53.7167 -129.8333 329° Northwest 430 495 38,000  Level Vancouver Center
03:26AM 53.8000 -129.9667 317° Northwest 440 506 38,000  Level Vancouver Center
03:27AM 53.9000 -130.0833 326° Northwest 440 506 38,000  Level Vancouver Center
03:28AM 54.0167 -130.2167 326° Northwest 440 506 38,000  Level Vancouver Center
03:29AM 54.1000 -130.3167 325° Northwest 440 506 38,000  Level Vancouver Center
03:30AM 54.2167 -130.4500 326° Northwest 440 506 38,000  Level Vancouver Center
03:31AM 54.3167 -130.5500 330° Northwest 440 506 38,000  Level Vancouver Center
03:32AM 54.4000 -130.6833 317° Northwest 430 495 38,000  Level Vancouver Center
03:33AM 54.5000 -130.7833 330° Northwest 420 483 38,000  Level Vancouver Center
03:34AM 54.6000 -130.9167 322° Northwest 420 483 38,000  Level Vancouver Center
03:35AM 54.6833 -131.0167 325° Northwest 420 483 38,000  Level Vancouver Center
03:36AM 54.7833 -131.1500 322° Northwest 420 483 38,000  Level Vancouver Center
03:37AM 54.8667 -131.2500 325° Northwest 420 483 38,000  Level Vancouver Center
03:38AM 54.9667 -131.3833 323° Northwest 420 483 38,000  Level Vancouver Center
03:39AM 55.0833 -131.5000 330° Northwest 420 483 38,000  Level Vancouver Center
03:40AM 55.1667 -131.6333 318° Northwest 430 495 38,000  Level Vancouver Center
03:41AM 55.2667 -131.7333 330° Northwest 430 495 38,000  Level Vancouver Center
03:42AM 55.3500 -131.8667 318° Northwest 420 483 38,000  Level Vancouver Center
03:43AM 55.4500 -132.0167 320° Northwest 420 483 38,000  Level Vancouver Center
03:44AM 55.5333 -132.1167 326° Northwest 420 483 38,000  Level Vancouver Center
03:45AM 55.6333 -132.2333 327° Northwest 410 472 38,000  Level Vancouver Center
03:46AM 55.7333 -132.3333 331° Northwest 410 472 38,000  Level Vancouver Center
03:47AM 55.8333 -132.4500 327° Northwest 410 472 38,000  Level Vancouver Center
03:48AM 55.9333 -132.5500 331° Northwest 410 472 38,000  Level Vancouver Center
03:49AM 56.0167 -132.6667 322° Northwest 410 472 38,000  Level Vancouver Center
03:50AM 56.1167 -132.7833 327° Northwest 400 460 38,000  Level Vancouver Center
03:51AM 56.2000 -132.8833 326° Northwest 400 460 38,000  Level Vancouver Center
03:52AM 56.3000 -133.0000 327° Northwest 400 460 38,000  Level Vancouver Center
03:53AM 56.4000 -133.1167 327° Northwest 400 460 38,000  Level Vancouver Center
03:54AM 56.4833 -133.2000 331° Northwest 400 460 38,000  Level Vancouver Center
03:55AM 56.5667 -133.3167 322° Northwest 400 460 38,000  Level Vancouver Center
03:56AM 56.6500 -133.4167 327° Northwest 400 460 38,000  Level Vancouver Center
03:57AM 56.7500 -133.5333 327° Northwest 390 449 38,000  Level Vancouver Center
03:58AM 56.8333 -133.6167 331° Northwest 400 460 38,000  Level Vancouver Center
03:59AM 56.9500 -133.7500 328° Northwest 400 460 38,000  Level Vancouver Center
04:00AM 57.0333 -133.8667 323° Northwest 400 460 38,000  Level Vancouver Center
04:01AM 57.1167 -133.9667 327° Northwest 390 449 38,000  Level Vancouver Center
04:02AM 57.2000 -134.0833 323° Northwest 390 449 38,000  Level Vancouver Center
04:03AM 57.3000 -134.2000 328° Northwest 390 449 38,000  Level Vancouver Center
04:04AM 57.4000 -134.3000 332° Northwest 390 449 38,000  Level Vancouver Center
04:05AM 57.4833 -134.4167 323° Northwest 390 449 38,000  Level Vancouver Center
04:06AM 57.5667 -134.5333 323° Northwest 390 449 38,000  Level Vancouver Center
04:07AM 57.6667 -134.6500 328° Northwest 400 460 38,000  Level Vancouver Center
04:08AM 57.7500 -134.7667 323° Northwest 400 460 38,000  Level Vancouver Center
04:09AM 57.8500 -134.9000 325° Northwest 400 460 38,000  Level Vancouver Center
04:10AM 57.9333 -134.9833 332° Northwest 400 460 38,000  Level Vancouver Center
04:11AM 58.0333 -135.1167 325° Northwest 400 460 38,000  Level Vancouver Center
04:12AM 58.1167 -135.2333 324° Northwest 400 460 38,000  Level Vancouver Center
04:14AM 58.2333 -135.3167 339° North 380 437 38,000  Level Anchorage Center
04:15AM 58.3333 -135.4167 332° Northwest 380 437 38,000 180 Level Anchorage Center
04:16AM 58.4167 -135.5167 328° Northwest 380 437 38,400 480 Climbing Anchorage Center
04:17AM 58.5167 -135.6167 332° Northwest 400 460 39,000 540 Climbing Anchorage Center
04:18AM 58.6167 -135.7167 333° Northwest 400 460 39,600 480 Climbing Anchorage Center
04:19AM 58.7000 -135.8167 328° Northwest 400 460 40,000 180 Climbing Anchorage Center
04:20AM 58.8000 -135.9333 329° Northwest 400 460 40,000  Level Anchorage Center
04:21AM 58.9000 -136.0333 333° Northwest 410 472 40,000  Level Anchorage Center
04:22AM 59.0000 -136.1500 329° Northwest 410 472 40,000  Level Anchorage Center
04:23AM 59.1000 -136.2667 329° Northwest 410 472 40,000  Level Anchorage Center
04:24AM 59.2000 -136.3833 329° Northwest 410 472 40,000  Level Anchorage Center
04:25AM 59.3000 -136.4833 333° Northwest 410 472 40,000  Level Anchorage Center
04:26AM 59.4000 -136.6000 329° Northwest 400 460 40,000  Level Anchorage Center
04:27AM 59.5000 -136.7167 329° Northwest 400 460 40,000  Level Anchorage Center
04:28AM 59.5833 -136.8167 329° Northwest 400 460 40,000  Level Anchorage Center
04:29AM 59.6833 -136.9333 330° Northwest 390 449 40,000  Level Anchorage Center
04:30AM 59.7833 -137.0500 330° Northwest 390 449 40,000  Level Anchorage Center
04:31AM 59.8667 -137.1500 329° Northwest 380 437 40,000  Level Anchorage Center
04:32AM 59.9667 -137.2667 330° Northwest 380 437 40,000  Level Anchorage Center
04:33AM 60.0500 -137.3667 329° Northwest 390 449 40,000  Level Anchorage Center
04:34AM 60.1500 -137.4833 330° Northwest 370 426 40,000  Level Anchorage Center
04:35AM 60.2333 -137.5833 329° Northwest 380 437 40,000  Level Anchorage Center
04:36AM 60.3167 -137.7000 325° Northwest 370 426 40,000  Level Anchorage Center
04:37AM 60.4167 -137.8000 334° Northwest 380 437 40,000  Level Anchorage Center
04:38AM 60.5000 -137.9167 325° Northwest 390 449 40,000  Level Anchorage Center
04:39AM 60.6000 -138.0333 330° Northwest 380 437 40,000  Level Anchorage Center
04:40AM 60.6833 -138.1500 326° Northwest 380 437 40,000  Level Anchorage Center
04:41AM 60.7667 -138.2500 330° Northwest 370 426 40,000  Level Anchorage Center
04:42AM 60.8667 -138.3667 330° Northwest 380 437 40,000  Level Anchorage Center
04:43AM 60.9500 -138.4833 326° Northwest 390 449 40,000  Level Anchorage Center
04:44AM 61.0500 -138.6000 331° Northwest 390 449 40,000  Level Anchorage Center
04:45AM 61.1333 -138.7167 326° Northwest 380 437 40,000  Level Anchorage Center
04:46AM 61.2167 -138.8333 326° Northwest 370 426 40,000  Level Anchorage Center
04:47AM 61.3000 -138.9500 326° Northwest 380 437 40,000  Level Anchorage Center
04:48AM 61.3833 -139.0833 323° Northwest 370 426 40,000  Level Anchorage Center
04:49AM 61.4833 -139.2333 324° Northwest 400 460 40,000  Level Anchorage Center
04:50AM 61.5500 -139.3667 316° Northwest 390 449 40,000  Level Anchorage Center
04:52AM 61.7059 -139.6353 321° Northwest  Level FlightAware Approximate
04:53AM 61.8167 -139.8333 321° Northwest 400 460 40,000  Level Anchorage Center
04:56AM 61.9586 -140.0824 321° Northwest  Level FlightAware Approximate
05:03AM 62.5434 -141.1453 319° Northwest  Level FlightAware Approximate
05:04AM 62.6256 -141.3022 319° Northwest  Level FlightAware Approximate
05:04AM 62.6500 -141.3167 308° West 340 391 34,000  Level Anchorage Center
05:05AM 62.7077 -141.4599 319° Northwest  Level FlightAware Approximate
05:05AM 62.7167 -141.4500 318° Northwest 330 380 34,000  Level Anchorage Center
05:06AM 62.7896 -141.6185 318° Northwest  Level FlightAware Approximate
05:06AM 62.7833 -141.6000 314° West 340 391 34,000  Level Anchorage Center
05:07AM 62.8712 -141.7780 318° Northwest  Level FlightAware Approximate
05:07AM 62.8500 -141.7333 318° Northwest 330 380 34,000  Level Anchorage Center
05:08AM 62.9493 -141.9453 308° West  Level FlightAware Approximate
05:08AM 62.9167 -141.8667 318° Northwest 320 368 34,000  Level Anchorage Center
05:09AM 63.0163 -142.1358 308° West  Level FlightAware Approximate
05:09AM 62.9833 -142.0167 314° West 330 380 34,000  Level Anchorage Center
05:10AM 63.0333 -142.1833 304° West 330 380 34,000 -300 Level Anchorage Center
05:11AM 63.1000 -142.3333 315° West 330 380 33,500 -900 Descending Anchorage Center
05:12AM 63.1500 -142.5000 304° West 330 380 32,200 -1,380 Descending Anchorage Center
05:13AM 63.2000 -142.6667 304° West 340 391 30,800 -1,140 Descending Anchorage Center
05:14AM 63.2667 -142.8500 309° West 360 414 30,000 -420 Descending Anchorage Center
05:15AM 63.3167 -143.0167 304° West 350 403 30,000  Level Anchorage Center
05:16AM 63.3833 -143.2000 309° West 350 403 30,000  Level Anchorage Center
05:17AM 63.4333 -143.3833 301° West 350 403 30,000  Level Anchorage Center
05:18AM 63.4833 -143.5500 304° West 340 391 30,000  Level Anchorage Center
05:19AM 63.5500 -143.7167 312° West 340 391 30,000  Level Anchorage Center
05:20AM 63.6000 -143.9000 302° West 340 391 30,000  Level Anchorage Center
05:21AM 63.6500 -144.0667 304° West 340 391 30,000  Level Anchorage Center
05:22AM 63.7167 -144.2500 309° West 350 403 30,000  Level Anchorage Center
05:23AM 63.7667 -144.4167 304° West 340 391 30,000  Level Anchorage Center
05:24AM 63.8167 -144.6000 302° West 340 391 30,000  Level Anchorage Center
05:25AM 63.8833 -144.7833 310° West 340 391 30,000  Level Anchorage Center
05:26AM 63.9333 -144.9833 300° West 340 391 30,000 -300 Level Anchorage Center
05:27AM 63.9833 -145.1500 304° West 340 391 29,400 -660 Descending Anchorage Center
05:28AM 64.0500 -145.3333 310° West 340 391 28,700 -720 Descending Anchorage Center
05:29AM 64.1000 -145.5167 302° West 350 403 28,000 -780 Descending Anchorage Center
05:30AM 64.1500 -145.7000 302° West 340 391 27,200 -1,380 Descending Anchorage Center
05:31AM 64.2000 -145.8667 305° West 320 368 25,300 -1,980 Descending Anchorage Center
05:32AM 64.2500 -146.0333 305° West 310 357 23,300 -2,040 Descending Anchorage Center
05:34AM 64.3458 -146.3632 303° West  Level FlightAware Approximate
05:41AM 64.6084 -147.8875 253° West  Level FlightAware Approximate
05:42AM 64.6429 -147.9325 16° North  Level FlightAware Approximate
05:43AM 64.7484 -147.8840 10° North  Level FlightAware Approximate
05:44AM 64.8000 -147.8500 16° North  Level FlightAware Approximate
05:45AM 64.8151 -147.8564 16° North  Level Estimated
05:46AM 64.8151 -147.8564 16° North  Level Estimated
05:47AM 64.8151 -147.8564 16° North  Level Estimated
05:48AM 64.8151 -147.8564 16° North  Level Estimated
05:49AM 64.8151 -147.8564 16° North  Level Estimated
05:50AM 64.8151 -147.8564 16° North  Level Estimated
05:51AM 64.8151 -147.8564 16° North  Level Estimated
05:52AM 64.8151 -147.8564 16° North  Level Estimated
05:53AM 64.8151 -147.8564 16° North  Level Estimated
05:54AM 64.8151 -147.8564 16° North  Level Estimated